createdAt,value
2019-01-19T17:16:29.147Z,66.11
2019-01-19T17:17:29.034Z,66.18
2019-01-19T17:18:29.087Z,66.25
2019-01-19T17:19:29.020Z,66.39
2019-01-19T17:20:31.051Z,66.02
2019-01-19T17:21:29.020Z,65.36
2019-01-19T17:22:29.013Z,65.53
2019-01-19T17:23:29.371Z,64.96
2019-01-19T17:24:29.029Z,64.59
2019-01-19T17:25:28.947Z,64.87
2019-01-19T17:26:28.973Z,64.53
2019-01-19T17:27:28.920Z,64.20
2019-01-19T17:28:28.952Z,64.27
2019-01-19T17:29:28.916Z,63.93
2019-01-19T17:30:28.971Z,63.84
2019-01-19T17:31:28.901Z,63.81
2019-01-19T17:32:28.882Z,63.27
2019-01-19T17:33:28.853Z,63.57
2019-01-19T17:34:29.298Z,62.84
2019-01-19T17:35:29.044Z,63.24
2019-01-19T17:36:28.983Z,63.71
2019-01-19T17:37:28.812Z,62.71
2019-01-19T17:38:28.821Z,62.81
2019-01-19T17:39:28.789Z,62.68
2019-01-19T17:40:28.839Z,62.95
2019-01-19T17:41:28.793Z,62.85
2019-01-19T17:42:28.846Z,62.35
2019-01-19T17:43:28.742Z,62.42
2019-01-19T17:44:28.760Z,62.12
2019-01-19T17:45:28.726Z,62.22
2019-01-19T17:46:28.883Z,61.88
2019-01-19T17:47:28.702Z,61.69
2019-01-19T17:48:28.837Z,61.49
2019-01-19T17:49:28.673Z,61.58
2019-01-19T17:50:28.755Z,61.76
2019-01-19T17:51:28.691Z,62.26
2019-01-19T17:52:28.716Z,62.26
2019-01-19T17:53:28.634Z,62.06
2019-01-19T17:54:28.730Z,61.55
2019-01-19T17:55:28.607Z,61.05
2019-01-19T17:56:29.831Z,61.13
2019-01-19T17:57:28.605Z,61.22
2019-01-19T17:58:28.653Z,61.13
2019-01-19T17:59:28.566Z,61.33
2019-01-19T18:00:28.694Z,61.33
2019-01-19T18:01:28.560Z,61.43
2019-01-19T18:02:28.697Z,61.52
2019-01-19T18:03:28.626Z,61.30
2019-01-19T18:04:31.455Z,61.70
2019-01-19T18:05:28.500Z,60.89
2019-01-19T18:06:28.593Z,61.10
2019-01-19T18:07:28.506Z,60.93
2019-01-19T18:08:28.563Z,60.42
2019-01-19T18:09:28.461Z,59.92
2019-01-19T18:10:28.639Z,59.42
2019-01-19T18:11:28.515Z,59.52
2019-01-19T18:12:28.591Z,59.52
2019-01-19T18:13:28.525Z,59.14
2019-01-19T18:14:28.711Z,58.64
2019-01-19T18:15:28.396Z,58.24
2019-01-19T18:16:28.539Z,57.74
2019-01-19T18:17:28.386Z,57.74
2019-01-19T18:18:28.404Z,57.61
2019-01-19T18:19:28.345Z,56.93
2019-01-19T18:20:28.477Z,57.14
2019-01-19T18:21:28.339Z,57.14
2019-01-19T18:22:28.381Z,56.63
2019-01-19T18:23:28.305Z,56.93
2019-01-19T18:24:28.423Z,57.11
2019-01-19T18:25:28.287Z,56.54
2019-01-19T18:26:28.378Z,56.81
2019-01-19T18:27:28.281Z,56.61
2019-01-19T18:28:28.358Z,56.41
2019-01-19T18:29:28.232Z,56.41
2019-01-19T18:30:28.314Z,56.30
2019-01-19T18:31:28.214Z,56.10
2019-01-19T18:32:28.391Z,56.51
2019-01-19T18:33:29.726Z,55.80
2019-01-19T18:34:28.203Z,55.71
2019-01-19T18:35:28.167Z,55.80
2019-01-19T18:36:28.335Z,55.71
2019-01-19T18:37:28.146Z,56.30
2019-01-19T18:38:29.247Z,55.30
2019-01-19T18:39:28.131Z,55.10
2019-01-19T18:40:28.160Z,55.40
2019-01-19T18:41:28.101Z,55.51
2019-01-19T18:42:28.342Z,55.60
2019-01-19T18:43:28.106Z,55.40
2019-01-19T18:44:28.195Z,55.40
2019-01-19T18:45:28.084Z,55.51
2019-01-19T18:46:28.166Z,55.51
2019-01-19T18:47:28.058Z,55.80
2019-01-19T18:48:28.206Z,55.80
2019-01-19T18:49:28.013Z,55.93
2019-01-19T18:50:28.208Z,55.51
2019-01-19T18:51:28.073Z,55.10
2019-01-19T18:52:28.108Z,55.40
2019-01-19T18:53:28.029Z,55.60
2019-01-19T18:54:28.148Z,56.21
2019-01-19T18:55:27.944Z,55.91
2019-01-19T18:56:28.028Z,55.30
2019-01-19T18:57:27.918Z,55.20
2019-01-19T18:58:28.006Z,55.20
2019-01-19T18:59:27.907Z,55.00
2019-01-19T19:00:28.049Z,55.20
2019-01-19T19:01:27.883Z,54.40
2019-01-19T19:02:27.918Z,54.60
2019-01-19T19:03:27.881Z,54.40
2019-01-19T19:04:27.986Z,54.10
2019-01-19T19:05:27.833Z,54.40
2019-01-19T19:06:27.946Z,54.40
2019-01-19T19:07:27.814Z,54.50
2019-01-19T19:08:27.861Z,54.30
2019-01-19T19:09:27.786Z,54.30
2019-01-19T19:10:27.891Z,54.80
2019-01-19T19:11:27.765Z,54.72
2019-01-19T19:12:27.956Z,54.72
2019-01-19T19:13:27.777Z,54.50
2019-01-19T19:14:27.767Z,53.82
2019-01-19T19:15:27.721Z,54.02
2019-01-19T19:16:27.892Z,53.92
2019-01-19T19:17:27.708Z,54.13
2019-01-19T19:18:28.753Z,54.13
2019-01-19T19:19:27.686Z,53.72
2019-01-19T19:20:27.768Z,53.72
2019-01-19T19:21:27.654Z,53.72
2019-01-19T19:22:28.838Z,53.52
2019-01-19T19:23:27.657Z,53.32
2019-01-19T19:24:28.689Z,53.52
2019-01-19T19:25:27.621Z,53.82
2019-01-19T19:26:27.746Z,53.62
2019-01-19T19:27:27.584Z,53.42
2019-01-19T19:28:27.700Z,53.12
2019-01-19T19:29:27.596Z,53.42
2019-01-19T19:30:27.767Z,53.42
2019-01-19T19:31:27.543Z,53.62
2019-01-19T19:32:27.651Z,53.62
2019-01-19T19:33:27.522Z,52.84
2019-01-19T19:34:28.660Z,53.52
2019-01-19T19:35:27.505Z,52.22
2019-01-19T19:36:27.787Z,52.92
2019-01-19T19:37:27.477Z,52.32
2019-01-19T19:38:27.539Z,52.22
2019-01-19T19:39:27.533Z,52.42
2019-01-19T19:40:27.610Z,52.62
2019-01-19T19:41:27.430Z,52.44
2019-01-19T19:42:28.183Z,52.12
2019-01-19T19:43:27.409Z,52.22
2019-01-19T19:44:27.588Z,52.72
2019-01-19T19:45:27.388Z,52.74
2019-01-19T19:46:28.544Z,52.82
2019-01-19T19:47:27.364Z,52.55
2019-01-19T19:48:27.485Z,52.44
2019-01-19T19:49:27.357Z,52.62
2019-01-19T19:50:28.683Z,52.74
2019-01-19T19:51:27.317Z,52.55
2019-01-19T19:52:27.975Z,52.55
2019-01-19T19:53:27.307Z,52.84
2019-01-19T19:54:28.580Z,52.44
2019-01-19T19:55:27.277Z,52.42
2019-01-19T19:56:27.453Z,52.84
2019-01-19T19:57:27.255Z,52.24
2019-01-19T19:58:27.428Z,52.42
2019-01-19T19:59:27.238Z,52.44
2019-01-19T20:00:27.326Z,52.44
2019-01-19T20:01:27.210Z,52.74
2019-01-19T20:02:27.369Z,52.64
2019-01-19T20:03:27.186Z,53.25
2019-01-19T20:04:27.209Z,52.84
2019-01-19T20:05:27.188Z,52.64
2019-01-19T20:06:27.295Z,52.24
2019-01-19T20:07:27.144Z,52.44
2019-01-19T20:08:27.225Z,52.24
2019-01-19T20:09:27.120Z,52.04
2019-01-19T20:10:27.266Z,52.64
2019-01-19T20:11:27.104Z,52.94
2019-01-19T20:12:27.198Z,53.05
2019-01-19T20:13:27.077Z,52.64
2019-01-19T20:14:28.295Z,52.55
2019-01-19T20:15:27.072Z,52.94
2019-01-19T20:16:27.135Z,52.55
2019-01-19T20:17:27.032Z,52.24
2019-01-19T20:18:27.102Z,52.84
2019-01-19T20:19:27.013Z,53.65
2019-01-19T20:20:27.150Z,53.34
2019-01-19T20:21:26.996Z,53.55
2019-01-19T20:22:27.037Z,53.75
2019-01-19T20:23:26.983Z,53.65
2019-01-19T20:24:27.116Z,53.65
2019-01-19T20:25:27.070Z,53.34
2019-01-19T20:26:27.083Z,53.45
2019-01-19T20:27:26.924Z,53.34
2019-01-19T20:28:28.071Z,53.55
2019-01-19T20:29:26.894Z,53.75
2019-01-19T20:30:27.052Z,53.85
2019-01-19T20:31:26.879Z,53.55
2019-01-19T20:32:28.011Z,53.65
2019-01-19T20:33:26.851Z,53.55
2019-01-19T20:34:26.974Z,53.45
2019-01-19T20:35:27.024Z,53.55
2019-01-19T20:36:27.077Z,53.85
2019-01-19T20:37:26.808Z,53.25
2019-01-19T20:38:26.888Z,54.05
2019-01-19T20:39:26.790Z,53.55
2019-01-19T20:40:26.838Z,53.85
2019-01-19T20:41:26.803Z,54.05
2019-01-19T20:42:26.892Z,54.05
2019-01-19T20:43:26.752Z,53.85
2019-01-19T20:44:26.765Z,53.55
2019-01-19T20:45:26.728Z,53.55
2019-01-19T20:46:26.815Z,54.25
2019-01-19T20:47:26.703Z,55.05
2019-01-19T20:48:26.792Z,55.05
2019-01-19T20:49:26.689Z,54.85
2019-01-19T20:50:27.727Z,54.85
2019-01-19T20:51:26.684Z,54.98
2019-01-19T20:52:27.742Z,54.48
2019-01-19T20:53:26.632Z,54.48
2019-01-19T20:54:26.748Z,55.08
2019-01-19T20:55:26.614Z,53.57
2019-01-19T20:56:26.679Z,54.17
2019-01-19T20:57:26.592Z,54.08
2019-01-19T20:58:26.659Z,54.17
2019-01-19T20:59:26.562Z,53.67
2019-01-19T21:00:26.670Z,54.08
2019-01-19T21:01:26.564Z,53.47
2019-01-19T21:02:26.583Z,53.50
2019-01-19T21:03:26.523Z,53.67
2019-01-19T21:04:26.603Z,53.40
2019-01-19T21:05:26.501Z,52.29
2019-01-19T21:06:26.552Z,52.80
2019-01-19T21:07:26.480Z,53.20
2019-01-19T21:08:26.525Z,52.19
2019-01-19T21:09:26.458Z,52.29
2019-01-19T21:10:31.700Z,52.09
2019-01-19T21:11:26.510Z,52.80
2019-01-19T21:12:26.481Z,52.29
2019-01-19T21:13:26.415Z,51.71
2019-01-19T21:14:26.521Z,51.11
2019-01-19T21:15:26.401Z,51.71
2019-01-19T21:16:26.514Z,50.91
2019-01-19T21:17:26.366Z,51.31
2019-01-19T21:18:26.458Z,50.91
2019-01-19T21:19:26.356Z,51.11
2019-01-19T21:20:26.428Z,51.39
2019-01-19T21:21:26.348Z,51.31
2019-01-19T21:22:26.489Z,50.91
2019-01-19T21:23:26.390Z,51.31
2019-01-19T21:24:26.478Z,51.21
2019-01-19T21:25:26.343Z,51.31
2019-01-19T21:26:26.428Z,51.41
2019-01-19T21:27:26.298Z,51.31
2019-01-19T21:28:26.399Z,51.39
2019-01-19T21:29:26.253Z,50.98
2019-01-19T21:30:26.413Z,51.29
2019-01-19T21:31:26.217Z,52.09
2019-01-19T21:32:27.350Z,52.29
2019-01-19T21:33:26.191Z,52.49
2019-01-19T21:34:26.673Z,52.59
2019-01-19T21:35:26.186Z,52.39
2019-01-19T21:36:26.274Z,52.59
2019-01-19T21:37:26.168Z,52.09
2019-01-19T21:38:26.304Z,52.19
2019-01-19T21:39:26.173Z,52.09
2019-01-19T21:40:26.282Z,52.29
2019-01-19T21:41:26.171Z,52.09
2019-01-19T21:42:26.337Z,52.31
2019-01-19T21:43:26.082Z,51.81
2019-01-19T21:44:26.243Z,51.81
2019-01-19T21:45:26.060Z,51.21
2019-01-19T21:46:26.109Z,50.91
2019-01-19T21:47:26.047Z,51.61
2019-01-19T21:48:26.182Z,51.11
2019-01-19T21:49:26.011Z,51.31
2019-01-19T21:50:26.208Z,51.41
2019-01-19T21:51:25.992Z,51.31
2019-01-19T21:52:26.156Z,51.41
2019-01-19T21:53:25.969Z,50.81
2019-01-19T21:54:26.086Z,51.11
2019-01-19T21:55:26.052Z,51.21
2019-01-19T21:56:27.095Z,50.71
2019-01-19T21:57:25.946Z,51.01
2019-01-19T21:58:26.025Z,50.91
2019-01-19T21:59:25.901Z,51.41
2019-01-19T22:00:25.992Z,51.51
2019-01-19T22:01:25.878Z,52.11
2019-01-19T22:02:25.994Z,52.01
2019-01-19T22:03:25.863Z,51.41
2019-01-19T22:04:25.896Z,50.91
2019-01-19T22:05:25.838Z,50.81
2019-01-19T22:06:25.908Z,51.31
2019-01-19T22:07:25.812Z,50.81
2019-01-19T22:08:25.893Z,51.61
2019-01-19T22:09:25.791Z,50.93
2019-01-19T22:10:25.841Z,50.91
2019-01-19T22:11:25.769Z,51.31
2019-01-19T22:12:25.865Z,51.41
2019-01-19T22:13:25.787Z,51.61
2019-01-19T22:14:25.765Z,51.21
2019-01-19T22:15:25.722Z,50.91
2019-01-19T22:16:25.851Z,50.91
2019-01-19T22:17:26.717Z,51.51
2019-01-19T22:18:25.899Z,51.91
2019-01-19T22:19:25.715Z,52.42
2019-01-19T22:20:25.700Z,52.22
2019-01-19T22:21:25.661Z,51.91
2019-01-19T22:22:25.713Z,52.31
2019-01-19T22:23:25.732Z,52.31
2019-01-19T22:24:25.767Z,51.91
2019-01-19T22:25:25.613Z,52.51
2019-01-19T22:26:25.677Z,52.22
2019-01-19T22:27:25.591Z,52.54
2019-01-19T22:28:25.691Z,52.62
2019-01-19T22:29:25.567Z,52.11
2019-01-19T22:30:28.123Z,52.51
2019-01-19T22:31:25.547Z,52.34
2019-01-19T22:32:26.727Z,52.54
2019-01-19T22:33:25.544Z,51.73
2019-01-19T22:34:25.592Z,51.84
2019-01-19T22:35:25.503Z,51.54
2019-01-19T22:36:25.505Z,51.03
2019-01-19T22:37:25.478Z,50.93
2019-01-19T22:38:25.556Z,51.36
2019-01-19T22:39:25.516Z,51.03
2019-01-19T22:40:25.539Z,51.14
2019-01-19T22:41:25.436Z,50.73
2019-01-19T22:42:25.549Z,50.96
2019-01-19T22:43:25.453Z,50.25
2019-01-19T22:44:26.485Z,50.25
2019-01-19T22:45:25.393Z,50.23
2019-01-19T22:46:26.511Z,50.23
2019-01-19T22:47:25.376Z,49.44
2019-01-19T22:48:25.437Z,49.82
2019-01-19T22:49:25.347Z,49.85
2019-01-19T22:50:25.406Z,50.05
2019-01-19T22:51:25.330Z,50.13
2019-01-19T22:52:25.423Z,50.05
2019-01-19T22:53:25.321Z,49.95
2019-01-19T22:54:25.351Z,50.23
2019-01-19T22:55:25.291Z,49.55
2019-01-19T22:56:27.290Z,49.75
2019-01-19T22:57:25.256Z,49.73
2019-01-19T22:58:25.362Z,49.93
2019-01-19T22:59:25.263Z,49.65
2019-01-19T23:00:25.267Z,49.93
2019-01-19T23:01:25.224Z,50.25
2019-01-19T23:02:25.281Z,50.02
2019-01-19T23:03:25.221Z,49.93
2019-01-19T23:04:25.230Z,50.25
2019-01-19T23:05:25.163Z,50.73
2019-01-19T23:06:25.207Z,50.63
2019-01-19T23:07:25.157Z,50.53
2019-01-19T23:08:25.223Z,50.93
2019-01-19T23:09:25.207Z,50.43
2019-01-19T23:10:26.157Z,50.83
2019-01-19T23:11:25.101Z,50.56
2019-01-19T23:12:25.101Z,50.96
2019-01-19T23:13:25.077Z,51.26
2019-01-19T23:14:25.209Z,51.06
2019-01-19T23:15:25.061Z,51.03
2019-01-19T23:16:25.091Z,50.83
2019-01-19T23:17:25.027Z,51.46
2019-01-19T23:18:25.092Z,51.56
2019-01-19T23:19:25.039Z,51.43
2019-01-19T23:20:25.003Z,52.26
2019-01-19T23:21:24.991Z,52.17
2019-01-19T23:22:25.015Z,52.47
2019-01-19T23:23:24.975Z,51.97
2019-01-19T23:24:25.064Z,52.87
2019-01-19T23:25:24.943Z,52.37
2019-01-19T23:26:25.048Z,52.17
2019-01-19T23:27:24.931Z,52.14
2019-01-19T23:28:24.925Z,52.57
2019-01-19T23:29:24.908Z,52.97
2019-01-19T23:30:25.014Z,52.47
2019-01-19T23:31:24.883Z,52.26
2019-01-19T23:32:24.887Z,52.57
2019-01-19T23:33:25.737Z,52.26
2019-01-19T23:34:26.943Z,52.26
2019-01-19T23:35:24.875Z,52.37
2019-01-19T23:36:24.915Z,53.17
2019-01-19T23:37:24.813Z,53.17
2019-01-19T23:38:24.813Z,52.97
2019-01-19T23:39:24.812Z,53.17
2019-01-19T23:40:25.897Z,52.97
2019-01-19T23:41:24.768Z,52.77
2019-01-19T23:42:24.855Z,53.09
2019-01-19T23:43:24.759Z,52.69
2019-01-19T23:44:24.745Z,53.00
2019-01-19T23:45:24.740Z,52.67
2019-01-19T23:46:24.774Z,52.69
2019-01-19T23:47:24.702Z,52.49
2019-01-19T23:48:24.789Z,52.80
2019-01-19T23:49:24.694Z,53.00
2019-01-19T23:50:24.740Z,53.30
2019-01-19T23:51:24.656Z,53.80
2019-01-19T23:52:24.732Z,53.50
2019-01-19T23:53:24.699Z,53.20
2019-01-19T23:54:24.731Z,53.40
2019-01-19T23:55:24.626Z,53.50
2019-01-19T23:56:24.614Z,53.60
2019-01-19T23:57:24.591Z,53.50
2019-01-19T23:58:26.604Z,54.00
2019-01-19T23:59:24.569Z,53.80
